Time;durP1;ratioP1;P1;durP2;ratioP2;P2;SDS_P1;SDS_P2;PMS_P1;PMS_P2;Temp;Humidity;BMP_temperature;BMP_pressure;BME280_temperature;BME280_humidity;BME280_pressure;Samples;Min_cycle;Max_cycle;Signal;HPM_P1;HPM_P2
2022/12/15 00:38:48;;;;;;;12.88;8.70;;;7.00;99.90;;;;;;5032817;28;20041;-71
2022/12/15 00:41:17;;;;;;;10.45;9.20;;;7.10;99.90;;;;;;5032201;28;20049;-72
2022/12/15 00:43:45;;;;;;;12.65;9.00;;;7.10;99.90;;;;;;5032612;28;20144;-72
2022/12/15 00:49:00;;;;;;;10.35;8.40;;;7.20;99.90;;;;;;5032593;28;20088;-70
2022/12/15 01:21:55;;;;;;;10.48;8.50;;;7.10;99.90;;;;;;5032165;28;20049;-73
2022/12/15 01:24:24;;;;;;;9.15;8.15;;;6.90;99.90;;;;;;5032594;28;20535;-75
2022/12/15 01:26:52;;;;;;;10.90;8.77;;;7.00;99.90;;;;;;5031707;28;20033;-72
2022/12/15 01:29:19;;;;;;;9.40;7.82;;;7.00;99.90;;;;;;5031899;28;20046;-73
2022/12/15 01:31:47;;;;;;;10.43;8.00;;;6.90;99.90;;;;;;5014249;28;20497;-72
2022/12/15 01:34:18;;;;;;;9.95;8.52;;;6.90;99.90;;;;;;5032006;28;20116;-71
2022/12/15 01:36:46;;;;;;;9.57;7.82;;;7.10;99.90;;;;;;5032030;28;20044;-76
2022/12/15 01:39:13;;;;;;;9.88;7.82;;;7.20;99.90;;;;;;5032117;28;20119;-70
2022/12/15 01:41:41;;;;;;;11.18;9.20;;;7.30;99.90;;;;;;5035122;28;20099;-72
2022/12/15 01:44:35;;;;;;;9.35;7.85;;;7.20;99.90;;;;;;5035170;28;20405;-72
2022/12/15 01:47:04;;;;;;;10.60;7.90;;;6.90;99.90;;;;;;5016573;28;20115;-70
2022/12/15 01:49:32;;;;;;;11.55;8.05;;;6.80;99.90;;;;;;5035642;28;20046;-71
2022/12/15 01:52:03;;;;;;;10.13;8.30;;;6.80;99.90;;;;;;5035380;28;20046;-71
2022/12/15 01:54:56;;;;;;;8.57;7.57;;;6.90;99.90;;;;;;5035893;28;20037;-73
2022/12/15 01:57:31;;;;;;;8.30;6.88;;;6.80;99.90;;;;;;5035374;28;20041;-74
2022/12/15 02:00:01;;;;;;;8.27;7.35;;;6.80;99.90;;;;;;5034735;28;20033;-70
2022/12/15 02:02:31;;;;;;;7.75;6.80;;;6.90;99.90;;;;;;5035136;28;20386;-74
2022/12/15 02:05:07;;;;;;;8.02;6.70;;;6.80;99.90;;;;;;5035362;28;20040;-70
2022/12/15 02:07:34;;;;;;;8.45;7.10;;;6.80;99.90;;;;;;5034873;28;20080;-74
2022/12/15 02:10:06;;;;;;;9.07;7.25;;;6.80;99.90;;;;;;5035715;28;20053;-70
2022/12/15 02:12:42;;;;;;;7.82;7.03;;;7.00;99.90;;;;;;5035140;28;20099;-71
2022/12/15 02:15:12;;;;;;;9.00;7.47;;;7.10;99.90;;;;;;5035514;28;20044;-71
2022/12/15 02:17:39;;;;;;;12.20;7.63;;;7.00;99.90;;;;;;5034996;28;20045;-69
2022/12/15 02:20:56;;;;;;;8.98;6.90;;;7.10;99.90;;;;;;5035053;28;20440;-71
2022/12/15 02:23:23;;;;;;;7.40;6.45;;;6.90;99.90;;;;;;5009991;28;20049;-74
2022/12/15 02:26:18;;;;;;;8.38;7.47;;;6.90;99.90;;;;;;5036130;28;20056;-75
2022/12/15 02:29:06;;;;;;;7.88;7.05;;;7.00;99.90;;;;;;5035274;28;20072;-74
2022/12/15 02:31:48;;;;;;;8.00;7.20;;;6.90;99.90;;;;;;5036016;28;20108;-74
2022/12/15 02:34:45;;;;;;;8.27;7.47;;;6.90;99.90;;;;;;5036222;28;20049;-71
2022/12/15 02:37:21;;;;;;;8.48;7.00;;;6.90;99.90;;;;;;5036240;28;20399;-71
2022/12/15 02:39:51;;;;;;;8.10;6.93;;;6.80;99.90;;;;;;5034603;28;20041;-70
2022/12/15 02:42:18;;;;;;;9.13;7.18;;;6.90;99.90;;;;;;5034666;28;20052;-70
2022/12/15 02:45:01;;;;;;;8.15;6.80;;;7.00;99.90;;;;;;5034865;28;20037;-72
2022/12/15 02:47:59;;;;;;;7.75;6.63;;;7.10;99.90;;;;;;5034316;28;20045;-74
2022/12/15 02:50:32;;;;;;;8.93;6.55;;;7.10;99.90;;;;;;5034009;28;20449;-72
2022/12/15 02:53:09;;;;;;;9.00;6.90;;;7.10;99.90;;;;;;5033630;28;20042;-69
2022/12/15 02:56:07;;;;;;;8.02;6.82;;;7.10;99.90;;;;;;5033680;28;20046;-72
2022/12/15 02:58:40;;;;;;;8.27;6.45;;;7.20;99.90;;;;;;5033998;28;20080;-73
2022/12/15 03:01:19;;;;;;;7.20;6.00;;;7.20;99.90;;;;;;5034028;28;20037;-71
2022/12/15 03:03:49;;;;;;;6.50;5.78;;;7.20;99.90;;;;;;5016816;28;20045;-69
2022/12/15 03:06:17;;;;;;;6.57;5.55;;;7.20;99.90;;;;;;5033943;28;20099;-72
2022/12/15 03:08:44;;;;;;;6.20;5.60;;;7.20;99.90;;;;;;5033543;28;20054;-70
2022/12/15 03:11:11;;;;;;;7.82;6.05;;;7.20;99.90;;;;;;5033705;28;20465;-73
2022/12/15 03:13:38;;;;;;;7.00;6.30;;;7.00;99.90;;;;;;5034088;28;20050;-73
2022/12/15 03:16:05;;;;;;;7.78;6.88;;;7.00;99.90;;;;;;5015780;28;20125;-70
2022/12/15 03:18:33;;;;;;;7.75;6.72;;;6.90;99.90;;;;;;5034019;28;20042;-71
2022/12/15 03:21:00;;;;;;;7.18;6.45;;;7.00;99.90;;;;;;5033406;28;20120;-74
2022/12/15 03:23:27;;;;;;;7.68;6.40;;;7.00;99.90;;;;;;5033827;28;20428;-72
2022/12/15 03:25:55;;;;;;;9.02;6.60;;;7.20;99.90;;;;;;5032997;28;20063;-74
2022/12/15 03:28:23;;;;;;;7.28;6.25;;;7.10;99.90;;;;;;5033522;28;20045;-70
2022/12/15 03:30:50;;;;;;;6.78;6.07;;;7.00;99.90;;;;;;5033231;28;20109;-73
2022/12/15 03:33:18;;;;;;;6.55;5.85;;;7.00;99.90;;;;;;5033678;28;20046;-70
2022/12/15 03:35:46;;;;;;;7.75;6.70;;;7.20;99.90;;;;;;5033101;28;20493;-73
2022/12/15 03:38:13;;;;;;;8.30;7.15;;;7.10;99.90;;;;;;5015621;28;20061;-71
2022/12/15 03:40:42;;;;;;;7.18;6.30;;;7.20;99.90;;;;;;5032134;28;20463;-73
2022/12/15 03:43:10;;;;;;;7.07;6.38;;;7.30;99.90;;;;;;5033710;28;20120;-70
2022/12/15 03:45:37;;;;;;;8.05;6.30;;;7.30;99.90;;;;;;5032935;28;20096;-70
2022/12/15 03:48:05;;;;;;;8.85;6.93;;;7.40;99.90;;;;;;5033435;28;20366;-72
2022/12/15 03:50:32;;;;;;;6.72;6.00;;;7.40;99.90;;;;;;5033575;28;20072;-72
2022/12/15 03:53:02;;;;;;;6.75;5.88;;;7.30;99.90;;;;;;5033296;28;20396;-71
2022/12/15 03:55:30;;;;;;;6.68;5.53;;;7.40;99.90;;;;;;5032362;28;20099;-70
2022/12/15 03:58:00;;;;;;;6.97;5.93;;;7.40;99.90;;;;;;5032976;28;20045;-70
2022/12/15 04:00:28;;;;;;;6.65;6.05;;;7.40;99.90;;;;;;5032602;28;20056;-70
2022/12/15 04:02:55;;;;;;;7.05;6.10;;;7.40;99.90;;;;;;5032383;28;20042;-72
2022/12/15 04:05:24;;;;;;;6.28;5.63;;;7.50;99.90;;;;;;5032468;28;20046;-73
2022/12/15 04:07:53;;;;;;;6.40;5.70;;;7.50;99.90;;;;;;5032780;28;20059;-74
2022/12/15 04:10:21;;;;;;;6.97;5.10;;;7.50;99.90;;;;;;5032458;28;20452;-71
2022/12/15 04:12:48;;;;;;;6.90;6.00;;;7.50;99.90;;;;;;5032455;28;20080;-71
2022/12/15 04:15:16;;;;;;;5.80;5.20;;;7.40;99.90;;;;;;5032897;28;20448;-70
2022/12/15 04:17:43;;;;;;;5.85;5.25;;;7.30;99.90;;;;;;5032626;28;20121;-71
2022/12/15 04:20:10;;;;;;;6.07;5.47;;;7.30;99.90;;;;;;5032706;28;20115;-73
2022/12/15 04:22:43;;;;;;;5.95;5.32;;;7.30;99.90;;;;;;5032449;28;20034;-72
2022/12/15 05:32:12;;;;;;;10.05;7.13;;;7.70;99.90;;;;;;5035259;28;20494;-72
2022/12/15 05:34:39;;;;;;;12.00;7.82;;;7.70;99.90;;;;;;5035579;28;20055;-71
2022/12/15 05:37:06;;;;;;;17.42;10.70;;;7.80;99.90;;;;;;5035099;28;20046;-68
2022/12/15 05:39:34;;;;;;;18.52;12.00;;;7.80;99.90;;;;;;5035580;28;20448;-71
2022/12/15 05:42:01;;;;;;;9.98;8.32;;;7.90;99.90;;;;;;5035252;28;20154;-72
2022/12/15 05:44:29;;;;;;;8.43;6.90;;;7.90;99.90;;;;;;5035430;28;20044;-74
2022/12/15 05:46:56;;;;;;;58.75;31.40;;;7.90;99.90;;;;;;5035441;28;20456;-72
2022/12/15 05:49:24;;;;;;;108.40;61.53;;;8.00;99.90;;;;;;5035630;28;20045;-73
2022/12/15 05:51:51;;;;;;;89.93;52.08;;;8.10;99.90;;;;;;5034732;28;20065;-69
2022/12/15 05:54:19;;;;;;;17.75;14.77;;;8.30;99.90;;;;;;5035376;28;20041;-69
2022/12/15 05:56:47;;;;;;;8.82;7.93;;;8.20;99.90;;;;;;5035400;28;20083;-69
2022/12/15 05:59:17;;;;;;;7.97;7.18;;;7.70;99.90;;;;;;5035229;28;20550;-71
2022/12/15 06:01:47;;;;;;;9.32;7.38;;;7.60;99.90;;;;;;5034765;28;20037;-73
2022/12/15 06:04:14;;;;;;;7.70;6.85;;;7.70;99.90;;;;;;5035530;28;20045;-76
2022/12/15 06:06:42;;;;;;;8.88;7.65;;;7.80;99.90;;;;;;5035238;28;20404;-73
2022/12/15 06:09:09;;;;;;;10.65;7.70;;;7.80;99.90;;;;;;5017836;28;20069;-74
2022/12/15 06:11:37;;;;;;;9.48;7.70;;;7.90;99.90;;;;;;5034900;28;20041;-71
2022/12/15 06:14:05;;;;;;;9.02;7.78;;;7.90;99.90;;;;;;5001311;28;20076;-75
2022/12/15 06:16:32;;;;;;;8.82;7.50;;;7.90;99.90;;;;;;5035019;28;20041;-77
2022/12/15 06:19:02;;;;;;;10.18;7.88;;;7.90;99.90;;;;;;5035496;28;20512;-73
2022/12/15 06:21:34;;;;;;;11.85;8.02;;;7.90;99.90;;;;;;5035203;28;20509;-72
2022/12/15 06:24:06;;;;;;;31.17;18.67;;;7.90;99.90;;;;;;5017218;28;20045;-73
2022/12/15 06:26:36;;;;;;;14.98;11.93;;;8.00;99.90;;;;;;5033848;28;20065;-73
2022/12/15 06:29:08;;;;;;;38.00;24.65;;;8.30;99.90;;;;;;5033508;28;20064;-72
2022/12/15 06:31:38;;;;;;;75.03;46.78;;;8.40;99.90;;;;;;5040353;28;20835;-72
2022/12/15 06:34:09;;;;;;;23.25;18.08;;;8.30;99.90;;;;;;5027396;28;20052;-73
2022/12/15 06:36:46;;;;;;;52.25;29.52;;;8.10;99.90;;;;;;5051381;28;20430;-74
2022/12/15 06:39:14;;;;;;;200.70;114.03;;;8.20;99.90;;;;;;5052956;28;20047;-75
2022/12/15 06:41:42;;;;;;;33.22;24.50;;;8.20;99.90;;;;;;5035211;28;20045;-72
2022/12/15 06:44:15;;;;;;;14.55;12.13;;;8.20;99.90;;;;;;5053093;28;20041;-72
2022/12/15 06:46:44;;;;;;;12.18;10.25;;;7.90;99.90;;;;;;5052037;28;20052;-72
2022/12/15 06:49:13;;;;;;;12.13;9.93;;;7.90;99.90;;;;;;5038190;28;20069;-70
2022/12/15 06:51:41;;;;;;;12.35;9.88;;;8.00;99.90;;;;;;5042972;28;20044;-71
2022/12/15 06:54:09;;;;;;;10.95;9.73;;;7.70;99.90;;;;;;5045048;28;20052;-74
2022/12/15 06:56:37;;;;;;;14.48;10.25;;;7.50;99.90;;;;;;5045848;28;20041;-72
2022/12/15 06:59:06;;;;;;;12.48;9.80;;;7.50;99.90;;;;;;5040029;28;20045;-74
2022/12/15 07:01:34;;;;;;;14.23;10.75;;;7.50;99.90;;;;;;5044203;28;20035;-71
2022/12/15 07:04:04;;;;;;;13.18;10.55;;;7.60;99.90;;;;;;5042211;28;20041;-76
2022/12/15 07:06:35;;;;;;;17.33;11.30;;;7.60;99.90;;;;;;5040872;28;20072;-70
2022/12/15 07:09:12;;;;;;;11.73;10.00;;;7.60;99.90;;;;;;5045225;28;20048;-72
2022/12/15 07:11:39;;;;;;;11.30;10.05;;;7.70;99.90;;;;;;5039741;28;20045;-74
2022/12/15 07:14:08;;;;;;;12.55;9.40;;;7.70;99.90;;;;;;5034559;28;20099;-74
2022/12/15 07:16:35;;;;;;;12.02;10.50;;;7.90;99.90;;;;;;5041581;28;20045;-76
2022/12/15 07:19:02;;;;;;;13.40;10.68;;;7.90;99.90;;;;;;5055013;28;20047;-76
2022/12/15 07:21:30;;;;;;;11.23;10.02;;;7.90;99.90;;;;;;5054061;28;20128;-72
2022/12/15 07:23:58;;;;;;;13.35;10.85;;;7.80;99.90;;;;;;5054449;28;20045;-72
2022/12/15 07:26:27;;;;;;;11.23;9.00;;;7.80;99.90;;;;;;5038271;28;20412;-76
2022/12/15 07:28:55;;;;;;;11.35;10.10;;;7.90;99.90;;;;;;5055480;28;20047;-75
2022/12/15 07:31:23;;;;;;;13.93;9.80;;;8.00;99.90;;;;;;5033737;28;20555;-77
2022/12/15 07:33:51;;;;;;;13.10;10.05;;;8.20;99.90;;;;;;5034815;28;20092;-73
2022/12/15 07:36:19;;;;;;;16.30;11.93;;;8.30;99.90;;;;;;5017096;28;20053;-74
2022/12/15 07:38:46;;;;;;;24.48;13.38;;;8.40;99.90;;;;;;5033560;28;20389;-73
2022/12/15 07:41:24;;;;;;;16.80;11.32;;;8.70;99.90;;;;;;5033573;28;20049;-75
2022/12/15 07:43:53;;;;;;;12.00;9.93;;;8.70;99.90;;;;;;4998050;28;20052;-71
2022/12/15 07:46:25;;;;;;;52.20;32.85;;;8.50;99.90;;;;;;5033082;28;20041;-71
2022/12/15 07:48:54;;;;;;;17.08;13.10;;;8.40;99.90;;;;;;4996162;28;20041;-71
2022/12/15 07:51:22;;;;;;;20.05;12.80;;;8.20;99.90;;;;;;4996400;28;20193;-71
2022/12/15 07:53:50;;;;;;;11.95;10.10;;;8.30;99.90;;;;;;5016040;28;20048;-73
2022/12/15 07:56:19;;;;;;;13.00;9.73;;;8.20;99.90;;;;;;5032606;28;20440;-73
2022/12/15 07:58:47;;;;;;;16.85;10.45;;;8.00;99.90;;;;;;5027624;28;20045;-70
2022/12/15 08:01:15;;;;;;;11.27;9.32;;;8.30;99.90;;;;;;5022095;28;20033;-72
2022/12/15 08:03:43;;;;;;;13.65;9.93;;;8.20;99.90;;;;;;5020427;28;20045;-70
2022/12/15 08:06:13;;;;;;;12.65;10.05;;;8.10;99.90;;;;;;5020143;28;20111;-70
2022/12/15 08:08:42;;;;;;;11.45;9.57;;;8.10;99.90;;;;;;5018464;28;20061;-70
2022/12/15 08:11:12;;;;;;;13.35;10.63;;;8.20;99.90;;;;;;5019352;28;20457;-71
2022/12/15 08:13:40;;;;;;;12.65;10.25;;;8.20;99.90;;;;;;5020244;28;20038;-73
2022/12/15 08:16:28;;;;;;;16.88;9.93;;;8.30;99.90;;;;;;5018767;28;20066;-73
2022/12/15 08:18:59;;;;;;;14.10;10.68;;;8.20;99.90;;;;;;5020673;28;20136;-72
2022/12/15 08:21:40;;;;;;;11.90;9.57;;;8.40;99.90;;;;;;5021454;28;20104;-70
2022/12/15 08:24:08;;;;;;;11.88;9.73;;;8.30;99.90;;;;;;5019080;28;20120;-72
2022/12/15 08:26:40;;;;;;;12.35;9.60;;;8.40;99.90;;;;;;5020337;28;20374;-70
2022/12/15 08:29:11;;;;;;;12.15;9.63;;;8.50;99.90;;;;;;5018610;28;20045;-71
2022/12/15 08:34:50;;;;;;;12.05;9.75;;;8.70;99.90;;;;;;5000625;28;20049;-73
2022/12/15 08:37:17;;;;;;;12.05;9.13;;;8.80;99.90;;;;;;4991781;28;20675;-72
2022/12/15 08:39:45;;;;;;;11.98;8.98;;;8.70;99.90;;;;;;4981366;28;20034;-72
2022/12/15 08:42:12;;;;;;;11.50;9.30;;;8.70;99.90;;;;;;4981761;28;20038;-72
2022/12/15 08:44:39;;;;;;;12.27;9.68;;;8.70;99.90;;;;;;5005296;28;20101;-71
2022/12/15 08:47:07;;;;;;;11.75;8.98;;;8.80;99.90;;;;;;4980430;28;20406;-70
2022/12/15 08:49:34;;;;;;;15.30;8.88;;;8.70;99.90;;;;;;4982123;28;20124;-73
2022/12/15 08:52:02;;;;;;;11.73;9.10;;;8.60;99.90;;;;;;4983649;28;20035;-74
2022/12/15 08:54:31;;;;;;;11.18;8.63;;;8.70;99.90;;;;;;4977888;28;20101;-73
2022/12/15 08:56:59;;;;;;;10.13;9.05;;;8.80;99.90;;;;;;4975540;28;20046;-71
2022/12/15 08:59:26;;;;;;;13.00;9.25;;;8.80;99.90;;;;;;4976920;28;20058;-77
2022/12/15 09:01:54;;;;;;;10.52;8.80;;;8.70;99.90;;;;;;4959970;28;20050;-72
2022/12/15 09:04:21;;;;;;;12.00;10.00;;;8.80;99.90;;;;;;4975980;28;20417;-72
2022/12/15 09:06:50;;;;;;;17.92;13.38;;;9.00;99.90;;;;;;4992238;28;20122;-71
2022/12/15 09:09:20;;;;;;;12.45;9.80;;;9.20;99.90;;;;;;4977608;28;20113;-73
2022/12/15 09:11:49;;;;;;;11.90;9.77;;;9.40;99.90;;;;;;4977483;28;20049;-73
2022/12/15 09:14:17;;;;;;;12.65;9.63;;;9.50;99.90;;;;;;4976354;28;20046;-73
2022/12/15 09:16:54;;;;;;;10.98;8.73;;;9.50;99.90;;;;;;4946245;28;20109;-74
2022/12/15 09:19:22;;;;;;;13.68;9.10;;;9.20;99.90;;;;;;4977626;28;20043;-72
2022/12/15 09:21:49;;;;;;;12.02;8.50;;;9.10;99.90;;;;;;4992304;28;20485;-73
2022/12/15 09:24:16;;;;;;;10.98;8.60;;;9.20;99.90;;;;;;4976169;28;20097;-72
2022/12/15 09:27:02;;;;;;;10.85;9.05;;;9.10;99.90;;;;;;4976465;28;20448;-72
2022/12/15 09:29:29;;;;;;;9.67;8.67;;;9.30;99.90;;;;;;4977081;28;20061;-73
2022/12/15 09:31:58;;;;;;;10.30;8.45;;;9.50;99.90;;;;;;4992408;28;20050;-73
2022/12/15 09:34:25;;;;;;;11.50;9.00;;;9.50;99.90;;;;;;4975833;28;20053;-73
2022/12/15 09:36:53;;;;;;;11.63;9.25;;;9.70;99.90;;;;;;4943752;28;20046;-72
2022/12/15 09:39:22;;;;;;;12.52;8.98;;;9.70;99.90;;;;;;4976903;28;20058;-74
2022/12/15 09:41:59;;;;;;;14.95;10.60;;;9.80;99.90;;;;;;4975750;28;20046;-69
2022/12/15 09:44:29;;;;;;;15.43;10.65;;;9.80;99.90;;;;;;4975472;28;20054;-72
2022/12/15 09:46:56;;;;;;;14.73;11.27;;;9.80;99.90;;;;;;4976865;28;20042;-72
2022/12/15 09:49:33;;;;;;;15.95;11.05;;;9.90;99.90;;;;;;4975687;28;20054;-74
2022/12/15 09:52:29;;;;;;;15.57;11.82;;;9.90;99.90;;;;;;4976847;28;20173;-72
2022/12/15 09:54:58;;;;;;;17.10;12.20;;;10.00;99.90;;;;;;4975516;28;20039;-74
2022/12/15 09:57:47;;;;;;;15.60;11.80;;;10.10;99.90;;;;;;4977003;28;20113;-71
2022/12/15 10:00:20;;;;;;;14.17;11.43;;;10.20;99.90;;;;;;4975495;28;20043;-70
2022/12/15 10:03:06;;;;;;;16.13;11.95;;;10.30;99.90;;;;;;4976730;28;20293;-72
2022/12/15 10:06:11;;;;;;;14.43;11.70;;;10.40;99.90;;;;;;4958656;28;20077;-70
2022/12/15 10:08:49;;;;;;;17.00;12.00;;;10.40;99.90;;;;;;4976378;28;20039;-74
2022/12/15 10:11:25;;;;;;;17.00;11.88;;;10.50;99.90;;;;;;4959509;28;20057;-73
2022/12/15 10:14:22;;;;;;;21.00;14.55;;;10.60;99.90;;;;;;4959403;28;20391;-73
2022/12/15 10:16:57;;;;;;;15.73;12.18;;;10.50;99.90;;;;;;4977304;28;20434;-73
2022/12/15 10:19:46;;;;;;;15.25;11.68;;;10.50;99.90;;;;;;4959513;28;20186;-74
2022/12/15 10:22:23;;;;;;;13.30;10.23;;;10.60;99.90;;;;;;4976053;28;20051;-73
2022/12/15 10:24:52;;;;;;;16.98;11.40;;;10.50;99.90;;;;;;4975596;28;20394;-72
2022/12/15 10:27:58;;;;;;;16.75;11.52;;;10.50;99.90;;;;;;4975778;28;20051;-71
2022/12/15 10:30:26;;;;;;;16.65;11.40;;;10.60;99.90;;;;;;4958418;28;20043;-70
2022/12/15 10:33:15;;;;;;;13.95;11.18;;;10.70;99.90;;;;;;4982143;28;20410;-71
2022/12/15 10:35:42;;;;;;;11.95;9.32;;;10.80;99.90;;;;;;4994045;28;20077;-71
2022/12/15 10:38:39;;;;;;;12.48;9.77;;;10.70;99.90;;;;;;4977624;28;20136;-72
2022/12/15 10:41:19;;;;;;;11.77;9.18;;;10.70;99.90;;;;;;4993878;28;20375;-71
2022/12/15 10:43:48;;;;;;;15.50;9.77;;;10.60;99.90;;;;;;4998642;28;20065;-69
2022/12/15 10:46:25;;;;;;;14.57;9.18;;;10.40;99.90;;;;;;5003478;28;20041;-71
2022/12/15 10:48:55;;;;;;;12.82;9.80;;;10.50;99.90;;;;;;4995478;28;20461;-71
2022/12/15 10:51:56;;;;;;;15.38;9.50;;;10.70;99.90;;;;;;4989729;28;20101;-70
2022/12/15 10:54:30;;;;;;;10.75;8.63;;;10.80;99.90;;;;;;4979838;28;20153;-70
2022/12/15 10:57:13;;;;;;;11.77;9.15;;;10.90;99.90;;;;;;5012980;28;20046;-71
2022/12/15 10:59:40;;;;;;;12.30;8.57;;;10.80;99.90;;;;;;5022189;23;20226;-71
2022/12/15 11:02:32;;;;;;;10.48;8.40;;;10.80;99.90;;;;;;5013602;28;20053;-71
2022/12/15 11:05:02;;;;;;;14.10;9.23;;;10.90;99.90;;;;;;5007401;28;20466;-70
2022/12/15 11:07:39;;;;;;;17.67;9.45;;;10.90;99.90;;;;;;5012946;28;20120;-71
2022/12/15 11:12:50;;;;;;;12.60;9.15;;;10.90;99.90;;;;;;4996688;28;20093;-70
2022/12/15 11:13:22;;;;;;;10.00;8.40;;;11.10;99.90;;;;;;4995975;28;20056;-74
2022/12/15 11:15:55;;;;;;;15.77;10.75;;;11.10;99.90;;;;;;5013677;28;20061;-70
2022/12/15 11:18:41;;;;;;;17.75;14.48;;;11.10;99.90;;;;;;5012564;28;20410;-70
2022/12/15 11:21:23;;;;;;;16.88;14.13;;;11.30;99.90;;;;;;4996306;28;20053;-71
2022/12/15 11:23:54;;;;;;;15.15;11.43;;;11.30;99.90;;;;;;4996149;28;20472;-70
2022/12/15 11:26:47;;;;;;;14.07;10.73;;;11.30;99.90;;;;;;4980432;28;20049;-70
2022/12/15 11:29:22;;;;;;;11.85;8.90;;;11.20;99.90;;;;;;4996425;28;20048;-69
2022/12/15 11:31:51;;;;;;;12.52;9.77;;;10.90;99.90;;;;;;5013531;28;20057;-69
2022/12/15 11:34:23;;;;;;;13.20;9.73;;;10.90;99.90;;;;;;5013470;28;20132;-71
2022/12/15 11:37:33;;;;;;;13.15;9.75;;;11.10;99.90;;;;;;5013292;28;20454;-69
2022/12/15 11:40:22;;;;;;;14.35;9.63;;;11.10;99.90;;;;;;5023253;23;20045;-70
2022/12/15 11:42:52;;;;;;;12.05;9.57;;;11.00;99.90;;;;;;5011849;28;20421;-70
2022/12/15 11:45:35;;;;;;;22.25;14.35;;;11.00;99.90;;;;;;5012164;28;20045;-71
2022/12/15 11:48:16;;;;;;;21.60;15.10;;;10.90;99.90;;;;;;5030593;23;20050;-70
2022/12/15 11:50:59;;;;;;;20.90;14.60;;;10.80;99.90;;;;;;5028537;28;20042;-70
2022/12/15 11:53:32;;;;;;;20.17;15.00;;;10.80;99.90;;;;;;5029102;28;20100;-70
2022/12/15 11:59:25;;;;;;;22.13;14.48;;;10.70;99.90;;;;;;5012216;28;20397;-70
2022/12/15 12:02:10;;;;;;;26.70;15.53;;;10.70;99.90;;;;;;4992045;28;20487;-70
2022/12/15 12:04:57;;;;;;;20.85;15.07;;;10.70;99.90;;;;;;5013437;28;20056;-70
2022/12/15 12:07:47;;;;;;;23.10;16.63;;;10.80;99.90;;;;;;4979755;28;20046;-72
2022/12/15 12:10:46;;;;;;;21.20;16.27;;;10.70;99.90;;;;;;4979924;28;20042;-70
2022/12/15 12:13:52;;;;;;;23.17;14.98;;;10.70;99.90;;;;;;4996115;28;20140;-72
2022/12/15 12:16:50;;;;;;;21.20;13.85;;;10.70;99.90;;;;;;5012832;28;20393;-73
2022/12/15 12:19:23;;;;;;;26.25;15.95;;;10.70;99.90;;;;;;4995806;28;20041;-71
2022/12/15 12:22:02;;;;;;;26.02;19.35;;;10.80;99.90;;;;;;4979834;28;20057;-71
2022/12/15 12:24:43;;;;;;;23.55;17.55;;;10.90;99.90;;;;;;4994562;28;20053;-70
2022/12/15 12:27:38;;;;;;;22.48;15.18;;;10.90;99.90;;;;;;5011760;28;20049;-72
2022/12/15 12:30:16;;;;;;;19.70;14.70;;;10.90;99.90;;;;;;4995720;28;20042;-72
2022/12/15 12:32:47;;;;;;;20.30;15.18;;;10.80;99.90;;;;;;4995140;28;20050;-71
2022/12/15 12:35:28;;;;;;;20.33;15.05;;;10.80;99.90;;;;;;5012704;28;20041;-71
2022/12/15 12:38:02;;;;;;;21.67;14.50;;;10.80;99.90;;;;;;5011389;28;20493;-72
2022/12/15 12:40:40;;;;;;;19.27;14.05;;;10.70;99.90;;;;;;5012484;28;20477;-70
2022/12/15 12:43:11;;;;;;;20.38;13.70;;;10.70;99.90;;;;;;5013106;28;20449;-73
2022/12/15 12:45:40;;;;;;;18.02;12.63;;;10.70;99.90;;;;;;4994942;28;20050;-70
2022/12/15 12:48:29;;;;;;;21.55;14.80;;;10.60;99.90;;;;;;5012713;28;20046;-73
2022/12/15 12:51:18;;;;;;;24.10;17.45;;;10.70;99.90;;;;;;5012416;28;20402;-71
2022/12/15 12:53:46;;;;;;;22.15;14.40;;;10.70;99.90;;;;;;5012738;28;20053;-68
2022/12/15 12:56:44;;;;;;;17.98;11.43;;;10.70;99.90;;;;;;5012009;28;20045;-69
2022/12/15 12:59:28;;;;;;;18.98;11.85;;;10.70;99.90;;;;;;4979746;28;20049;-71
2022/12/15 13:01:57;;;;;;;17.00;11.70;;;10.60;99.90;;;;;;5012448;28;20042;-72
2022/12/15 13:04:32;;;;;;;16.60;10.88;;;10.70;99.90;;;;;;5012424;28;20433;-73
2022/12/15 13:07:04;;;;;;;18.80;11.82;;;10.70;99.90;;;;;;5012170;28;20042;-71
2022/12/15 13:09:41;;;;;;;16.75;10.90;;;10.80;99.90;;;;;;4996158;28;20136;-70
2022/12/15 13:12:35;;;;;;;18.57;11.90;;;10.90;99.90;;;;;;5011295;28;20124;-72
2022/12/15 13:15:29;;;;;;;17.40;12.68;;;10.90;99.90;;;;;;5012531;28;20489;-71
2022/12/15 13:18:23;;;;;;;18.02;12.88;;;11.00;99.90;;;;;;5010531;28;20401;-71
2022/12/15 13:20:54;;;;;;;16.70;10.77;;;10.90;99.90;;;;;;5012153;28;20034;-71
2022/12/15 13:23:24;;;;;;;16.25;10.70;;;10.80;99.90;;;;;;4994641;28;20137;-69
2022/12/15 13:25:57;;;;;;;14.85;10.50;;;10.80;99.90;;;;;;5011417;28;20046;-72
2022/12/15 13:28:34;;;;;;;14.75;9.85;;;10.80;99.90;;;;;;5010801;28;20121;-69
2022/12/15 13:31:17;;;;;;;12.10;9.50;;;10.80;99.90;;;;;;5010688;28;20061;-71
2022/12/15 13:33:54;;;;;;;16.05;11.23;;;10.90;99.90;;;;;;5007281;28;20133;-71
2022/12/15 13:36:40;;;;;;;21.50;12.45;;;10.90;99.90;;;;;;4976839;28;20050;-72
2022/12/15 13:39:11;;;;;;;19.20;11.65;;;10.90;99.90;;;;;;4996308;28;20476;-70
2022/12/15 13:41:47;;;;;;;17.67;11.55;;;10.90;99.90;;;;;;5002856;28;20112;-69
2022/12/15 13:44:43;;;;;;;20.55;10.73;;;10.80;99.90;;;;;;5015874;28;20161;-72
2022/12/15 13:47:14;;;;;;;16.83;11.40;;;10.70;99.90;;;;;;5015363;28;20072;-72
2022/12/15 13:49:47;;;;;;;16.77;11.75;;;10.80;99.90;;;;;;5015272;28;20128;-72
2022/12/15 13:52:52;;;;;;;15.20;10.15;;;10.80;99.90;;;;;;5015569;28;20401;-73
2022/12/15 13:55:57;;;;;;;18.67;10.00;;;10.70;99.90;;;;;;5014482;28;20045;-72
2022/12/15 13:58:29;;;;;;;18.67;10.73;;;10.60;99.90;;;;;;4997745;28;20119;-70
2022/12/15 14:00:57;;;;;;;17.90;10.88;;;10.40;99.90;;;;;;5015480;28;20125;-69
2022/12/15 14:03:25;;;;;;;16.65;11.85;;;10.50;99.90;;;;;;4997636;28;20088;-72
2022/12/15 14:05:56;;;;;;;18.30;11.88;;;10.50;99.90;;;;;;4998026;28;20092;-69
2022/12/15 14:08:28;;;;;;;21.48;12.93;;;10.50;99.90;;;;;;5015043;28;20042;-70
2022/12/15 14:11:01;;;;;;;19.02;12.23;;;10.60;99.90;;;;;;4997998;28;20045;-70
2022/12/15 14:13:49;;;;;;;18.42;12.82;;;10.50;99.90;;;;;;5001060;28;20041;-69
2022/12/15 14:16:23;;;;;;;18.25;12.18;;;10.60;99.90;;;;;;4998227;28;20076;-70
2022/12/15 14:19:13;;;;;;;23.80;14.07;;;10.50;99.90;;;;;;4998483;28;20060;-69
2022/12/15 14:21:48;;;;;;;21.40;14.43;;;10.50;99.90;;;;;;4997762;28;20042;-72
2022/12/15 14:24:46;;;;;;;25.58;14.50;;;10.70;99.90;;;;;;5014778;28;20038;-70
2022/12/15 14:27:23;;;;;;;24.67;15.45;;;10.70;99.90;;;;;;4998610;28;20100;-71
2022/12/15 14:30:18;;;;;;;26.90;14.75;;;10.70;99.90;;;;;;4997910;28;20073;-70
2022/12/15 14:32:55;;;;;;;30.98;16.48;;;10.70;99.90;;;;;;5006150;23;20060;-71
2022/12/15 14:35:38;;;;;;;25.10;16.85;;;10.70;99.90;;;;;;5034608;28;20052;-70
2022/12/15 14:38:15;;;;;;;26.33;17.88;;;10.80;99.90;;;;;;5037125;28;20071;-71
2022/12/15 14:40:45;;;;;;;20.58;14.48;;;10.70;99.90;;;;;;5026838;28;20049;-71
2022/12/15 14:43:22;;;;;;;23.55;15.07;;;10.80;99.90;;;;;;5029287;28;20114;-68
2022/12/15 14:45:54;;;;;;;23.98;14.30;;;10.80;99.90;;;;;;5030274;23;20643;-71
2022/12/15 14:48:38;;;;;;;20.52;14.60;;;10.80;99.90;;;;;;5014074;28;20096;-70
2022/12/15 14:51:12;;;;;;;21.88;14.40;;;10.80;99.90;;;;;;5023081;28;20038;-70
2022/12/15 14:53:42;;;;;;;22.67;15.40;;;10.80;99.90;;;;;;5004695;28;20050;-70
2022/12/15 14:56:18;;;;;;;25.20;15.43;;;10.80;99.90;;;;;;5019666;28;20054;-72
2022/12/15 14:59:17;;;;;;;26.27;14.48;;;10.80;99.90;;;;;;5004883;28;20133;-69
2022/12/15 15:02:18;;;;;;;24.50;14.25;;;10.70;99.90;;;;;;5006032;28;20048;-71
2022/12/15 15:05:04;;;;;;;22.30;13.52;;;10.70;99.90;;;;;;4996427;28;20038;-72
2022/12/15 15:07:33;;;;;;;34.03;14.77;;;10.70;99.90;;;;;;5000676;28;20053;-70
2022/12/15 15:10:30;;;;;;;20.30;13.90;;;10.60;99.90;;;;;;5022090;28;20801;-70
2022/12/15 15:12:59;;;;;;;27.45;15.23;;;10.60;99.90;;;;;;4989145;28;20041;-69
2022/12/15 15:15:26;;;;;;;24.52;15.40;;;10.60;99.90;;;;;;5024128;28;20108;-70
2022/12/15 15:17:57;;;;;;;26.23;15.68;;;10.60;99.90;;;;;;5004572;28;20065;-70
2022/12/15 15:20:33;;;;;;;23.27;15.00;;;10.60;99.90;;;;;;5000085;28;20057;-71
2022/12/15 15:23:15;;;;;;;23.05;15.57;;;10.60;99.90;;;;;;5021766;28;20042;-69
2022/12/15 15:25:56;;;;;;;22.20;15.05;;;10.60;99.90;;;;;;5003619;28;20057;-73
2022/12/15 15:28:28;;;;;;;;;;;10.60;99.90;;;;;;4993706;28;20050;-69
2022/12/15 15:31:03;;;;;;;24.77;14.50;;;10.60;99.90;;;;;;4994898;28;20024;-71
2022/12/15 15:33:34;;;;;;;22.58;14.50;;;10.60;99.90;;;;;;5012421;28;20505;-71
2022/12/15 15:36:05;;;;;;;24.35;14.65;;;10.70;99.90;;;;;;4996152;28;20041;-71
2022/12/15 15:38:33;;;;;;;29.52;15.55;;;10.70;99.90;;;;;;4983179;28;20041;-71
2022/12/15 15:41:31;;;;;;;24.65;14.90;;;10.70;99.90;;;;;;4996705;28;20057;-69
2022/12/15 15:44:01;;;;;;;26.50;16.08;;;10.70;99.90;;;;;;4995709;28;20107;-69